sensor_id;sensor_type;location;lat;lon;timestamp;pressure;altitude;pressure_sealevel;temperature
82638;BMP280;72318;36.628;-121.932;2023-11-21T00:00:24;101978.25;;;18.26
82638;BMP280;72318;36.628;-121.932;2023-11-21T00:02:50;101976.31;;;19.23
82638;BMP280;72318;36.628;-121.932;2023-11-21T00:05:16;101978.66;;;19.17
82638;BMP280;72318;36.628;-121.932;2023-11-21T00:07:43;101977.91;;;18.99
82638;BMP280;72318;36.628;-121.932;2023-11-21T00:10:10;101976.34;;;18.91
82638;BMP280;72318;36.628;-121.932;2023-11-21T00:12:37;101979.84;;;18.95
82638;BMP280;72318;36.628;-121.932;2023-11-21T00:15:04;101984.34;;;19.73
82638;BMP280;72318;36.628;-121.932;2023-11-21T00:17:40;101985.59;;;19.25
82638;BMP280;72318;36.628;-121.932;2023-11-21T00:20:07;101979.47;;;18.86
82638;BMP280;72318;36.628;-121.932;2023-11-21T00:22:36;101982.94;;;19.08
82638;BMP280;72318;36.628;-121.932;2023-11-21T00:25:02;101986.38;;;18.30
82638;BMP280;72318;36.628;-121.932;2023-11-21T00:27:32;101982.91;;;18.40
82638;BMP280;72318;36.628;-121.932;2023-11-21T00:29:58;101986.19;;;17.80
82638;BMP280;72318;36.628;-121.932;2023-11-21T00:32:24;101980.09;;;17.98
82638;BMP280;72318;36.628;-121.932;2023-11-21T00:34:50;101971.94;;;18.05
82638;BMP280;72318;36.628;-121.932;2023-11-21T00:37:16;101969.63;;;18.03
82638;BMP280;72318;36.628;-121.932;2023-11-21T00:39:43;101973.50;;;18.09
82638;BMP280;72318;36.628;-121.932;2023-11-21T00:42:09;101973.94;;;18.11
82638;BMP280;72318;36.628;-121.932;2023-11-21T00:44:38;101963.81;;;18.08
82638;BMP280;72318;36.628;-121.932;2023-11-21T00:47:05;101970.44;;;18.07
82638;BMP280;72318;36.628;-121.932;2023-11-21T00:49:31;101958.69;;;17.82
82638;BMP280;72318;36.628;-121.932;2023-11-21T00:51:58;101950.88;;;17.66
82638;BMP280;72318;36.628;-121.932;2023-11-21T00:54:24;101943.59;;;17.74
82638;BMP280;72318;36.628;-121.932;2023-11-21T00:56:50;101938.00;;;17.45
82638;BMP280;72318;36.628;-121.932;2023-11-21T00:59:16;101947.81;;;17.64
82638;BMP280;72318;36.628;-121.932;2023-11-21T01:01:43;101938.72;;;17.31
82638;BMP280;72318;36.628;-121.932;2023-11-21T01:04:09;101936.47;;;17.48
82638;BMP280;72318;36.628;-121.932;2023-11-21T01:06:36;101934.06;;;17.32
82638;BMP280;72318;36.628;-121.932;2023-11-21T01:09:03;101925.75;;;17.07
82638;BMP280;72318;36.628;-121.932;2023-11-21T01:11:34;101923.06;;;17.04
82638;BMP280;72318;36.628;-121.932;2023-11-21T01:14:03;101917.94;;;16.95
82638;BMP280;72318;36.628;-121.932;2023-11-21T01:16:30;101922.13;;;17.47
82638;BMP280;72318;36.628;-121.932;2023-11-21T01:18:59;101921.50;;;17.86
82638;BMP280;72318;36.628;-121.932;2023-11-21T01:21:25;101927.31;;;17.77
82638;BMP280;72318;36.628;-121.932;2023-11-21T01:23:54;101930.00;;;17.77
82638;BMP280;72318;36.628;-121.932;2023-11-21T01:26:21;101931.97;;;17.84
82638;BMP280;72318;36.628;-121.932;2023-11-21T01:28:48;101933.91;;;17.80
82638;BMP280;72318;36.628;-121.932;2023-11-21T01:31:15;101933.53;;;17.78
82638;BMP280;72318;36.628;-121.932;2023-11-21T01:33:41;101930.84;;;17.95
82638;BMP280;72318;36.628;-121.932;2023-11-21T01:36:08;101927.31;;;17.74
82638;BMP280;72318;36.628;-121.932;2023-11-21T01:38:35;101939.88;;;17.34
82638;BMP280;72318;36.628;-121.932;2023-11-21T01:41:01;101933.78;;;17.55
82638;BMP280;72318;36.628;-121.932;2023-11-21T01:43:30;101941.97;;;17.65
82638;BMP280;72318;36.628;-121.932;2023-11-21T01:45:57;101935.25;;;17.38
82638;BMP280;72318;36.628;-121.932;2023-11-21T01:48:24;101940.34;;;17.47
82638;BMP280;72318;36.628;-121.932;2023-11-21T01:50:51;101942.91;;;17.22
82638;BMP280;72318;36.628;-121.932;2023-11-21T01:53:18;101936.25;;;17.12
82638;BMP280;72318;36.628;-121.932;2023-11-21T01:55:45;101938.25;;;17.22
82638;BMP280;72318;36.628;-121.932;2023-11-21T01:58:12;101955.09;;;16.98
82638;BMP280;72318;36.628;-121.932;2023-11-21T02:00:40;101947.88;;;17.16
82638;BMP280;72318;36.628;-121.932;2023-11-21T02:03:09;101950.09;;;17.00
82638;BMP280;72318;36.628;-121.932;2023-11-21T02:05:36;101957.75;;;16.91
82638;BMP280;72318;36.628;-121.932;2023-11-21T02:08:03;101953.00;;;17.28
82638;BMP280;72318;36.628;-121.932;2023-11-21T02:10:30;101959.25;;;16.85
82638;BMP280;72318;36.628;-121.932;2023-11-21T02:12:57;101958.34;;;17.21
82638;BMP280;72318;36.628;-121.932;2023-11-21T02:15:24;101958.72;;;17.20
82638;BMP280;72318;36.628;-121.932;2023-11-21T02:17:54;101953.84;;;17.36
82638;BMP280;72318;36.628;-121.932;2023-11-21T02:20:22;101955.75;;;17.32
82638;BMP280;72318;36.628;-121.932;2023-11-21T02:22:56;101949.31;;;17.61
82638;BMP280;72318;36.628;-121.932;2023-11-21T02:25:30;101962.06;;;16.99
82638;BMP280;72318;36.628;-121.932;2023-11-21T02:27:57;101953.53;;;17.52
82638;BMP280;72318;36.628;-121.932;2023-11-21T02:30:24;101947.94;;;17.23
82638;BMP280;72318;36.628;-121.932;2023-11-21T02:32:51;101952.72;;;16.89
82638;BMP280;72318;36.628;-121.932;2023-11-21T02:35:21;74294.38;;;-140.84
82638;BMP280;72318;36.628;-121.932;2023-11-21T02:37:48;74294.38;;;-140.84
82638;BMP280;72318;36.628;-121.932;2023-11-21T02:40:14;74294.38;;;-140.84
82638;BMP280;72318;36.628;-121.932;2023-11-21T02:42:44;74294.38;;;-140.84
82638;BMP280;72318;36.628;-121.932;2023-11-21T02:45:11;74294.38;;;-140.84
82638;BMP280;72318;36.628;-121.932;2023-11-21T02:47:45;74294.38;;;-140.84
82638;BMP280;72318;36.628;-121.932;2023-11-21T02:50:12;74294.38;;;-140.84
82638;BMP280;72318;36.628;-121.932;2023-11-21T02:52:39;74294.38;;;-140.84
82638;BMP280;72318;36.628;-121.932;2023-11-21T02:55:08;74294.38;;;-140.84
82638;BMP280;72318;36.628;-121.932;2023-11-21T02:57:34;74294.38;;;-140.84
82638;BMP280;72318;36.628;-121.932;2023-11-21T03:00:01;74294.38;;;-140.84
82638;BMP280;72318;36.628;-121.932;2023-11-21T03:02:28;74294.38;;;-140.84
82638;BMP280;72318;36.628;-121.932;2023-11-21T03:04:54;74294.38;;;-140.84
82638;BMP280;72318;36.628;-121.932;2023-11-21T03:07:20;74294.38;;;-140.84
82638;BMP280;72318;36.628;-121.932;2023-11-21T03:09:47;74294.38;;;-140.84
82638;BMP280;72318;36.628;-121.932;2023-11-21T03:12:13;74294.38;;;-140.84
82638;BMP280;72318;36.628;-121.932;2023-11-21T03:14:40;74294.38;;;-140.84
82638;BMP280;72318;36.628;-121.932;2023-11-21T03:17:06;74294.38;;;-140.84
82638;BMP280;72318;36.628;-121.932;2023-11-21T03:19:33;74294.38;;;-140.84
82638;BMP280;72318;36.628;-121.932;2023-11-21T03:21:59;74294.38;;;-140.84
82638;BMP280;72318;36.628;-121.932;2023-11-21T03:24:25;74294.38;;;-140.84
82638;BMP280;72318;36.628;-121.932;2023-11-21T03:26:52;74294.38;;;-140.84
82638;BMP280;72318;36.628;-121.932;2023-11-21T03:29:19;74294.38;;;-140.84
82638;BMP280;72318;36.628;-121.932;2023-11-21T03:31:46;74294.38;;;-140.84
82638;BMP280;72318;36.628;-121.932;2023-11-21T03:34:22;74294.38;;;-140.84
82638;BMP280;72318;36.628;-121.932;2023-11-21T03:36:49;74294.38;;;-140.84
82638;BMP280;72318;36.628;-121.932;2023-11-21T03:39:15;74294.38;;;-140.84
82638;BMP280;72318;36.628;-121.932;2023-11-21T03:41:41;74294.38;;;-140.84
82638;BMP280;72318;36.628;-121.932;2023-11-21T03:44:08;74294.38;;;-140.84
82638;BMP280;72318;36.628;-121.932;2023-11-21T03:46:34;74294.38;;;-140.84
82638;BMP280;72318;36.628;-121.932;2023-11-21T03:49:01;74294.38;;;-140.84
82638;BMP280;72318;36.628;-121.932;2023-11-21T03:51:27;74294.38;;;-140.84
82638;BMP280;72318;36.628;-121.932;2023-11-21T03:53:53;74294.38;;;-140.84
82638;BMP280;72318;36.628;-121.932;2023-11-21T03:56:20;74294.38;;;-140.84
82638;BMP280;72318;36.628;-121.932;2023-11-21T03:58:49;74294.38;;;-140.84
82638;BMP280;72318;36.628;-121.932;2023-11-21T04:01:33;74294.38;;;-140.84
82638;BMP280;72318;36.628;-121.932;2023-11-21T04:03:59;74294.38;;;-140.84
82638;BMP280;72318;36.628;-121.932;2023-11-21T04:06:25;74294.38;;;-140.84
82638;BMP280;72318;36.628;-121.932;2023-11-21T04:08:51;74294.38;;;-140.84
82638;BMP280;72318;36.628;-121.932;2023-11-21T04:11:17;74294.38;;;-140.84
82638;BMP280;72318;36.628;-121.932;2023-11-21T04:13:44;74294.38;;;-140.84
82638;BMP280;72318;36.628;-121.932;2023-11-21T04:16:11;74294.38;;;-140.84
82638;BMP280;72318;36.628;-121.932;2023-11-21T04:18:38;74294.38;;;-140.84
82638;BMP280;72318;36.628;-121.932;2023-11-21T04:21:05;74294.38;;;-140.84
82638;BMP280;72318;36.628;-121.932;2023-11-21T04:23:32;74294.38;;;-140.84
82638;BMP280;72318;36.628;-121.932;2023-11-21T04:25:58;74294.38;;;-140.84
82638;BMP280;72318;36.628;-121.932;2023-11-21T04:28:24;74294.38;;;-140.84
82638;BMP280;72318;36.628;-121.932;2023-11-21T04:30:51;74294.38;;;-140.84
82638;BMP280;72318;36.628;-121.932;2023-11-21T04:33:17;74294.38;;;-140.84
82638;BMP280;72318;36.628;-121.932;2023-11-21T04:35:43;74294.38;;;-140.84
82638;BMP280;72318;36.628;-121.932;2023-11-21T04:38:10;74294.38;;;-140.84
82638;BMP280;72318;36.628;-121.932;2023-11-21T04:40:36;74294.38;;;-140.84
82638;BMP280;72318;36.628;-121.932;2023-11-21T04:43:02;74294.38;;;-140.84
82638;BMP280;72318;36.628;-121.932;2023-11-21T04:45:32;74294.38;;;-140.84
82638;BMP280;72318;36.628;-121.932;2023-11-21T04:47:58;74294.38;;;-140.84
82638;BMP280;72318;36.628;-121.932;2023-11-21T04:50:24;74294.38;;;-140.84
82638;BMP280;72318;36.628;-121.932;2023-11-21T04:52:52;74294.38;;;-140.84
82638;BMP280;72318;36.628;-121.932;2023-11-21T04:55:19;74294.38;;;-140.84
82638;BMP280;72318;36.628;-121.932;2023-11-21T04:57:46;74294.38;;;-140.84
82638;BMP280;72318;36.628;-121.932;2023-11-21T05:00:13;74294.38;;;-140.84
82638;BMP280;72318;36.628;-121.932;2023-11-21T05:02:41;74294.38;;;-140.84
82638;BMP280;72318;36.628;-121.932;2023-11-21T05:05:07;74294.38;;;-140.84
82638;BMP280;72318;36.628;-121.932;2023-11-21T05:07:36;74294.38;;;-140.84
82638;BMP280;72318;36.628;-121.932;2023-11-21T05:10:05;74294.38;;;-140.84
82638;BMP280;72318;36.628;-121.932;2023-11-21T05:12:38;74294.38;;;-140.84
82638;BMP280;72318;36.628;-121.932;2023-11-21T05:15:05;74294.38;;;-140.84
82638;BMP280;72318;36.628;-121.932;2023-11-21T05:17:38;74294.38;;;-140.84
82638;BMP280;72318;36.628;-121.932;2023-11-21T05:20:08;74294.38;;;-140.84
82638;BMP280;72318;36.628;-121.932;2023-11-21T05:22:36;74294.38;;;-140.84
82638;BMP280;72318;36.628;-121.932;2023-11-21T05:25:03;74294.38;;;-140.84
82638;BMP280;72318;36.628;-121.932;2023-11-21T05:27:30;74294.38;;;-140.84
82638;BMP280;72318;36.628;-121.932;2023-11-21T05:29:57;74294.38;;;-140.84
82638;BMP280;72318;36.628;-121.932;2023-11-21T05:32:24;74294.38;;;-140.84
82638;BMP280;72318;36.628;-121.932;2023-11-21T05:34:52;74294.38;;;-140.84
82638;BMP280;72318;36.628;-121.932;2023-11-21T05:37:18;74294.38;;;-140.84
82638;BMP280;72318;36.628;-121.932;2023-11-21T05:39:44;74294.38;;;-140.84
82638;BMP280;72318;36.628;-121.932;2023-11-21T05:42:11;74294.38;;;-140.84
82638;BMP280;72318;36.628;-121.932;2023-11-21T05:44:41;74294.38;;;-140.84
82638;BMP280;72318;36.628;-121.932;2023-11-21T05:47:09;74294.38;;;-140.84
82638;BMP280;72318;36.628;-121.932;2023-11-21T05:49:36;74294.38;;;-140.84
82638;BMP280;72318;36.628;-121.932;2023-11-21T05:52:03;74294.38;;;-140.84
82638;BMP280;72318;36.628;-121.932;2023-11-21T05:54:31;74294.38;;;-140.84
82638;BMP280;72318;36.628;-121.932;2023-11-21T05:56:57;74294.38;;;-140.84
82638;BMP280;72318;36.628;-121.932;2023-11-21T05:59:24;74294.38;;;-140.84
82638;BMP280;72318;36.628;-121.932;2023-11-21T06:01:51;74294.38;;;-140.84
82638;BMP280;72318;36.628;-121.932;2023-11-21T06:04:18;74294.38;;;-140.84
82638;BMP280;72318;36.628;-121.932;2023-11-21T06:06:44;74294.38;;;-140.84
82638;BMP280;72318;36.628;-121.932;2023-11-21T06:11:05;102073.19;;;15.79
82638;BMP280;72318;36.628;-121.932;2023-11-21T06:13:32;102070.88;;;15.81
82638;BMP280;72318;36.628;-121.932;2023-11-21T06:15:58;102081.50;;;15.93
82638;BMP280;72318;36.628;-121.932;2023-11-21T06:18:26;102082.41;;;16.04
82638;BMP280;72318;36.628;-121.932;2023-11-21T06:20:52;102085.19;;;15.82
82638;BMP280;72318;36.628;-121.932;2023-11-21T06:23:21;102096.91;;;15.66
82638;BMP280;72318;36.628;-121.932;2023-11-21T06:25:47;102091.41;;;15.59
82638;BMP280;72318;36.628;-121.932;2023-11-21T06:28:14;102094.75;;;15.75
82638;BMP280;72318;36.628;-121.932;2023-11-21T06:30:43;102098.28;;;16.06
82638;BMP280;72318;36.628;-121.932;2023-11-21T06:33:11;102095.84;;;15.97
82638;BMP280;72318;36.628;-121.932;2023-11-21T06:35:37;102099.25;;;15.68
82638;BMP280;72318;36.628;-121.932;2023-11-21T06:38:03;102098.59;;;15.74
82638;BMP280;72318;36.628;-121.932;2023-11-21T06:40:30;102094.31;;;16.00
82638;BMP280;72318;36.628;-121.932;2023-11-21T06:42:59;102092.69;;;15.92
82638;BMP280;72318;36.628;-121.932;2023-11-21T06:48:03;102089.81;;;15.81
82638;BMP280;72318;36.628;-121.932;2023-11-21T06:50:29;102085.50;;;15.77
82638;BMP280;72318;36.628;-121.932;2023-11-21T06:52:56;102082.47;;;15.82
82638;BMP280;72318;36.628;-121.932;2023-11-21T06:55:22;102077.69;;;15.71
82638;BMP280;72318;36.628;-121.932;2023-11-21T06:57:49;102072.06;;;15.57
82638;BMP280;72318;36.628;-121.932;2023-11-21T07:00:16;102071.97;;;15.77
82638;BMP280;72318;36.628;-121.932;2023-11-21T07:02:46;102065.78;;;15.76
82638;BMP280;72318;36.628;-121.932;2023-11-21T07:05:12;102070.03;;;15.51
82638;BMP280;72318;36.628;-121.932;2023-11-21T07:07:41;102064.25;;;15.29
82638;BMP280;72318;36.628;-121.932;2023-11-21T07:10:07;102060.88;;;15.59
82638;BMP280;72318;36.628;-121.932;2023-11-21T07:12:34;102053.88;;;15.81
82638;BMP280;72318;36.628;-121.932;2023-11-21T07:15:00;102066.28;;;15.36
82638;BMP280;72318;36.628;-121.932;2023-11-21T07:17:28;102055.19;;;15.64
82638;BMP280;72318;36.628;-121.932;2023-11-21T07:19:54;102065.22;;;15.40
82638;BMP280;72318;36.628;-121.932;2023-11-21T07:22:21;102061.69;;;15.86
82638;BMP280;72318;36.628;-121.932;2023-11-21T07:24:51;102061.81;;;15.93
82638;BMP280;72318;36.628;-121.932;2023-11-21T07:27:17;102061.38;;;15.64
82638;BMP280;72318;36.628;-121.932;2023-11-21T07:29:46;102056.41;;;15.43
82638;BMP280;72318;36.628;-121.932;2023-11-21T07:32:14;102056.28;;;15.59
82638;BMP280;72318;36.628;-121.932;2023-11-21T07:34:41;102060.50;;;14.92
82638;BMP280;72318;36.628;-121.932;2023-11-21T07:37:08;102060.09;;;14.90
82638;BMP280;72318;36.628;-121.932;2023-11-21T07:39:37;102064.13;;;14.80
82638;BMP280;72318;36.628;-121.932;2023-11-21T07:42:07;102067.66;;;14.45
82638;BMP280;72318;36.628;-121.932;2023-11-21T07:44:34;102072.16;;;14.76
82638;BMP280;72318;36.628;-121.932;2023-11-21T07:47:01;102072.84;;;14.93
82638;BMP280;72318;36.628;-121.932;2023-11-21T07:49:27;102078.22;;;15.12
82638;BMP280;72318;36.628;-121.932;2023-11-21T07:51:54;102083.47;;;15.24
82638;BMP280;72318;36.628;-121.932;2023-11-21T07:54:23;102078.59;;;15.33
82638;BMP280;72318;36.628;-121.932;2023-11-21T07:56:49;102088.22;;;15.31
82638;BMP280;72318;36.628;-121.932;2023-11-21T07:59:16;102088.88;;;15.47
82638;BMP280;72318;36.628;-121.932;2023-11-21T08:01:44;102093.38;;;15.39
82638;BMP280;72318;36.628;-121.932;2023-11-21T08:04:14;102097.97;;;15.16
82638;BMP280;72318;36.628;-121.932;2023-11-21T08:06:41;102097.41;;;15.49
82638;BMP280;72318;36.628;-121.932;2023-11-21T08:09:07;102103.34;;;15.35
82638;BMP280;72318;36.628;-121.932;2023-11-21T08:11:34;102107.94;;;15.31
82638;BMP280;72318;36.628;-121.932;2023-11-21T08:14:01;102102.88;;;15.10
82638;BMP280;72318;36.628;-121.932;2023-11-21T08:16:27;102093.19;;;15.29
82638;BMP280;72318;36.628;-121.932;2023-11-21T08:18:53;102069.13;;;13.88
82638;BMP280;72318;36.628;-121.932;2023-11-21T08:21:20;102073.72;;;14.77
82638;BMP280;72318;36.628;-121.932;2023-11-21T08:23:46;102071.56;;;15.06
82638;BMP280;72318;36.628;-121.932;2023-11-21T08:26:19;102082.94;;;15.38
82638;BMP280;72318;36.628;-121.932;2023-11-21T08:28:46;102082.00;;;15.27
82638;BMP280;72318;36.628;-121.932;2023-11-21T08:31:13;102083.16;;;15.29
82638;BMP280;72318;36.628;-121.932;2023-11-21T08:33:40;102087.63;;;15.18
82638;BMP280;72318;36.628;-121.932;2023-11-21T08:36:09;102090.50;;;15.29
82638;BMP280;72318;36.628;-121.932;2023-11-21T08:38:36;102095.34;;;15.20
82638;BMP280;72318;36.628;-121.932;2023-11-21T08:41:06;102099.38;;;15.75
82638;BMP280;72318;36.628;-121.932;2023-11-21T08:43:36;102104.91;;;15.36
82638;BMP280;72318;36.628;-121.932;2023-11-21T08:46:09;102117.66;;;15.17
82638;BMP280;72318;36.628;-121.932;2023-11-21T08:48:36;102121.50;;;15.16
82638;BMP280;72318;36.628;-121.932;2023-11-21T08:51:03;102119.06;;;15.30
82638;BMP280;72318;36.628;-121.932;2023-11-21T08:53:30;102127.50;;;14.86
82638;BMP280;72318;36.628;-121.932;2023-11-21T08:55:57;102129.63;;;14.96
82638;BMP280;72318;36.628;-121.932;2023-11-21T08:58:23;102127.19;;;15.53
82638;BMP280;72318;36.628;-121.932;2023-11-21T09:00:49;102124.63;;;15.37
82638;BMP280;72318;36.628;-121.932;2023-11-21T09:03:15;102133.78;;;15.78
82638;BMP280;72318;36.628;-121.932;2023-11-21T09:05:42;102130.31;;;15.32
82638;BMP280;72318;36.628;-121.932;2023-11-21T09:08:08;102127.91;;;15.27
82638;BMP280;72318;36.628;-121.932;2023-11-21T09:20:39;102145.44;;;15.17
82638;BMP280;72318;36.628;-121.932;2023-11-21T09:23:05;102144.84;;;15.47
82638;BMP280;72318;36.628;-121.932;2023-11-21T09:25:33;102144.97;;;14.92
82638;BMP280;72318;36.628;-121.932;2023-11-21T09:27:59;102160.00;;;14.93
82638;BMP280;72318;36.628;-121.932;2023-11-21T09:30:25;102162.09;;;14.80
82638;BMP280;72318;36.628;-121.932;2023-11-21T09:32:51;102169.81;;;14.47
82638;BMP280;72318;36.628;-121.932;2023-11-21T09:35:18;102164.09;;;14.48
82638;BMP280;72318;36.628;-121.932;2023-11-21T09:37:44;102162.72;;;14.39
82638;BMP280;72318;36.628;-121.932;2023-11-21T09:40:11;102156.72;;;14.30
82638;BMP280;72318;36.628;-121.932;2023-11-21T09:45:32;102145.69;;;14.19
82638;BMP280;72318;36.628;-121.932;2023-11-21T09:47:59;102134.03;;;13.68
82638;BMP280;72318;36.628;-121.932;2023-11-21T09:50:26;102110.31;;;13.89
82638;BMP280;72318;36.628;-121.932;2023-11-21T09:55:34;102101.94;;;13.47
82638;BMP280;72318;36.628;-121.932;2023-11-21T09:58:05;102055.53;;;13.53
82638;BMP280;72318;36.628;-121.932;2023-11-21T10:00:34;102028.59;;;13.53
82638;BMP280;72318;36.628;-121.932;2023-11-21T10:03:01;102001.50;;;13.62
82638;BMP280;72318;36.628;-121.932;2023-11-21T10:05:28;101984.41;;;13.39
82638;BMP280;72318;36.628;-121.932;2023-11-21T10:07:56;101968.94;;;13.36
82638;BMP280;72318;36.628;-121.932;2023-11-21T10:10:26;101964.75;;;13.54
82638;BMP280;72318;36.628;-121.932;2023-11-21T10:13:02;101970.59;;;14.26
82638;BMP280;72318;36.628;-121.932;2023-11-21T10:15:33;101986.47;;;14.31
82638;BMP280;72318;36.628;-121.932;2023-11-21T10:18:03;102008.13;;;14.54
82638;BMP280;72318;36.628;-121.932;2023-11-21T10:20:31;102024.13;;;14.63
82638;BMP280;72318;36.628;-121.932;2023-11-21T10:22:57;102019.34;;;14.56
82638;BMP280;72318;36.628;-121.932;2023-11-21T10:25:23;102029.50;;;14.43
82638;BMP280;72318;36.628;-121.932;2023-11-21T10:27:57;102010.25;;;14.45
82638;BMP280;72318;36.628;-121.932;2023-11-21T10:30:33;102016.31;;;14.23
82638;BMP280;72318;36.628;-121.932;2023-11-21T10:33:03;102004.13;;;14.29
82638;BMP280;72318;36.628;-121.932;2023-11-21T10:35:42;102006.03;;;14.28
82638;BMP280;72318;36.628;-121.932;2023-11-21T10:38:13;102008.63;;;14.60
82638;BMP280;72318;36.628;-121.932;2023-11-21T10:40:44;102041.72;;;14.21
82638;BMP280;72318;36.628;-121.932;2023-11-21T10:43:12;102018.63;;;14.05
82638;BMP280;72318;36.628;-121.932;2023-11-21T10:45:41;102027.97;;;14.65
82638;BMP280;72318;36.628;-121.932;2023-11-21T10:48:09;102049.22;;;14.86
82638;BMP280;72318;36.628;-121.932;2023-11-21T10:50:45;102046.19;;;14.68
82638;BMP280;72318;36.628;-121.932;2023-11-21T10:53:12;102048.97;;;14.75
82638;BMP280;72318;36.628;-121.932;2023-11-21T10:55:39;102061.59;;;15.10
82638;BMP280;72318;36.628;-121.932;2023-11-21T10:58:06;102059.66;;;14.49
82638;BMP280;72318;36.628;-121.932;2023-11-21T11:00:33;102055.34;;;15.06
82638;BMP280;72318;36.628;-121.932;2023-11-21T11:03:00;102048.47;;;14.66
82638;BMP280;72318;36.628;-121.932;2023-11-21T11:05:28;102044.66;;;14.32
82638;BMP280;72318;36.628;-121.932;2023-11-21T11:08:05;102041.34;;;14.77
82638;BMP280;72318;36.628;-121.932;2023-11-21T11:10:32;102054.53;;;14.63
82638;BMP280;72318;36.628;-121.932;2023-11-21T11:12:59;102036.78;;;14.43
82638;BMP280;72318;36.628;-121.932;2023-11-21T11:15:26;102036.38;;;14.60
82638;BMP280;72318;36.628;-121.932;2023-11-21T11:17:53;102040.56;;;14.38
82638;BMP280;72318;36.628;-121.932;2023-11-21T11:20:24;102044.94;;;14.66
82638;BMP280;72318;36.628;-121.932;2023-11-21T11:31:39;102086.56;;;15.03
82638;BMP280;72318;36.628;-121.932;2023-11-21T11:34:31;102068.25;;;14.74
82638;BMP280;72318;36.628;-121.932;2023-11-21T11:37:04;102061.84;;;14.82
82638;BMP280;72318;36.628;-121.932;2023-11-21T11:39:38;102070.25;;;14.58
82638;BMP280;72318;36.628;-121.932;2023-11-21T11:42:07;102063.47;;;15.06
82638;BMP280;72318;36.628;-121.932;2023-11-21T11:50:09;102061.47;;;15.03
82638;BMP280;72318;36.628;-121.932;2023-11-21T11:52:44;102058.81;;;14.64
82638;BMP280;72318;36.628;-121.932;2023-11-21T11:55:12;102052.56;;;14.79
82638;BMP280;72318;36.628;-121.932;2023-11-21T11:57:46;102065.63;;;14.97
82638;BMP280;72318;36.628;-121.932;2023-11-21T12:00:17;102062.69;;;15.05
82638;BMP280;72318;36.628;-121.932;2023-11-21T12:03:08;102077.22;;;15.20
82638;BMP280;72318;36.628;-121.932;2023-11-21T12:05:35;102081.69;;;15.55
82638;BMP280;72318;36.628;-121.932;2023-11-21T12:08:06;102061.47;;;15.03
82638;BMP280;72318;36.628;-121.932;2023-11-21T12:10:37;102058.44;;;15.27
82638;BMP280;72318;36.628;-121.932;2023-11-21T12:13:09;102061.56;;;14.87
82638;BMP280;72318;36.628;-121.932;2023-11-21T12:15:36;102060.16;;;15.16
82638;BMP280;72318;36.628;-121.932;2023-11-21T12:18:03;102056.84;;;14.80
82638;BMP280;72318;36.628;-121.932;2023-11-21T12:20:30;102046.03;;;14.61
82638;BMP280;72318;36.628;-121.932;2023-11-21T12:23:00;102043.56;;;14.52
82638;BMP280;72318;36.628;-121.932;2023-11-21T12:25:30;102036.72;;;14.59
82638;BMP280;72318;36.628;-121.932;2023-11-21T12:28:00;102037.72;;;14.50
82638;BMP280;72318;36.628;-121.932;2023-11-21T12:30:34;102058.66;;;14.96
82638;BMP280;72318;36.628;-121.932;2023-11-21T12:33:04;102083.63;;;14.93
82638;BMP280;72318;36.628;-121.932;2023-11-21T12:35:33;102107.66;;;14.78
82638;BMP280;72318;36.628;-121.932;2023-11-21T12:38:00;102119.03;;;14.88
82638;BMP280;72318;36.628;-121.932;2023-11-21T12:40:30;102127.47;;;15.25
82638;BMP280;72318;36.628;-121.932;2023-11-21T12:42:58;102126.22;;;14.99
82638;BMP280;72318;36.628;-121.932;2023-11-21T12:45:26;102143.91;;;14.97
82638;BMP280;72318;36.628;-121.932;2023-11-21T12:47:58;102186.53;;;15.26
82638;BMP280;72318;36.628;-121.932;2023-11-21T12:50:27;102217.09;;;15.30
82638;BMP280;72318;36.628;-121.932;2023-11-21T12:53:02;102226.09;;;14.99
82638;BMP280;72318;36.628;-121.932;2023-11-21T12:55:31;102214.88;;;14.46
82638;BMP280;72318;36.628;-121.932;2023-11-21T12:58:01;102224.41;;;15.10
82638;BMP280;72318;36.628;-121.932;2023-11-21T13:00:48;102223.50;;;14.68
82638;BMP280;72318;36.628;-121.932;2023-11-21T13:03:15;102236.81;;;14.61
82638;BMP280;72318;36.628;-121.932;2023-11-21T13:05:45;102237.28;;;14.82
82638;BMP280;72318;36.628;-121.932;2023-11-21T13:08:12;102227.69;;;14.85
82638;BMP280;72318;36.628;-121.932;2023-11-21T13:10:40;102238.84;;;15.18
82638;BMP280;72318;36.628;-121.932;2023-11-21T13:13:09;102244.16;;;14.95
82638;BMP280;72318;36.628;-121.932;2023-11-21T13:15:40;102242.41;;;14.87
82638;BMP280;72318;36.628;-121.932;2023-11-21T13:18:06;102235.59;;;14.93
82638;BMP280;72318;36.628;-121.932;2023-11-21T13:20:33;102229.78;;;14.75
82638;BMP280;72318;36.628;-121.932;2023-11-21T13:23:00;102215.66;;;14.98
82638;BMP280;72318;36.628;-121.932;2023-11-21T13:25:29;102219.50;;;15.16
82638;BMP280;72318;36.628;-121.932;2023-11-21T13:27:57;102215.94;;;15.12
82638;BMP280;72318;36.628;-121.932;2023-11-21T13:30:25;102199.34;;;14.75
82638;BMP280;72318;36.628;-121.932;2023-11-21T13:33:03;102208.00;;;15.19
82638;BMP280;72318;36.628;-121.932;2023-11-21T13:35:33;102206.41;;;14.79
82638;BMP280;72318;36.628;-121.932;2023-11-21T13:38:15;102184.66;;;14.72
82638;BMP280;72318;36.628;-121.932;2023-11-21T13:40:47;102183.03;;;14.68
82638;BMP280;72318;36.628;-121.932;2023-11-21T13:43:18;102193.75;;;14.83
82638;BMP280;72318;36.628;-121.932;2023-11-21T13:45:48;102204.81;;;15.13
82638;BMP280;72318;36.628;-121.932;2023-11-21T13:48:17;102229.78;;;14.91
82638;BMP280;72318;36.628;-121.932;2023-11-21T13:50:51;102239.06;;;14.94
82638;BMP280;72318;36.628;-121.932;2023-11-21T13:53:35;102253.34;;;14.75
82638;BMP280;72318;36.628;-121.932;2023-11-21T13:56:03;102250.53;;;15.45
82638;BMP280;72318;36.628;-121.932;2023-11-21T13:58:30;102252.56;;;15.09